Time;durP1;ratioP1;P1;durP2;ratioP2;P2;SDS_P1;SDS_P2;PMS_P1;PMS_P2;Temp;Humidity;BMP_temperature;BMP_pressure;BME280_temperature;BME280_humidity;BME280_pressure;Samples;Min_cycle;Max_cycle;Signal;HPM_P1;HPM_P2
2021/09/27 00:00:34;;;;;;;15.57;10.52;;;;;;;15.81;100.00;101411.84;5276635;28;20467;-68
2021/09/27 00:03:06;;;;;;;10.80;9.70;;;;;;;15.76;100.00;101422.06;5264824;28;20021;-68
2021/09/27 00:05:37;;;;;;;11.07;10.02;;;;;;;15.74;100.00;101413.44;5264814;28;20074;-69
2021/09/27 00:08:09;;;;;;;13.20;9.82;;;;;;;15.72;100.00;101408.31;5265199;28;20024;-68
2021/09/27 00:10:47;;;;;;;10.10;9.10;;;;;;;15.76;100.00;101400.91;5265533;28;20057;-69
2021/09/27 00:13:22;;;;;;;12.07;9.82;;;;;;;15.70;100.00;101398.88;5265296;28;20442;-69
2021/09/27 00:15:55;;;;;;;13.70;9.73;;;;;;;15.67;100.00;101402.63;5266083;28;20032;-68
2021/09/27 00:18:27;;;;;;;11.45;9.77;;;;;;;15.66;100.00;101414.19;5265712;28;20025;-69
2021/09/27 00:21:01;;;;;;;11.25;10.07;;;;;;;15.67;100.00;101410.53;5263618;28;20071;-68
2021/09/27 00:23:34;;;;;;;12.95;10.20;;;;;;;15.63;100.00;101408.31;5265055;28;20071;-69
2021/09/27 00:26:06;;;;;;;13.98;10.65;;;;;;;15.59;100.00;101397.22;5263632;28;20027;-68
2021/09/27 00:28:38;;;;;;;11.23;9.07;;;;;;;15.58;100.00;101399.03;5263392;28;20514;-68
2021/09/27 00:31:09;;;;;;;11.63;9.23;;;;;;;15.59;100.00;101394.59;5267320;28;20366;-68
2021/09/27 00:33:41;;;;;;;10.60;9.55;;;;;;;15.56;100.00;101398.34;5265430;28;20024;-68
2021/09/27 00:36:12;;;;;;;11.05;9.82;;;;;;;15.56;100.00;101394.88;5266586;28;20057;-68
2021/09/27 00:38:44;;;;;;;11.52;9.75;;;;;;;15.55;100.00;101394.06;5264659;28;20052;-68
2021/09/27 00:41:18;;;;;;;12.73;10.40;;;;;;;15.51;100.00;101386.59;5265701;28;20107;-69
2021/09/27 00:43:51;;;;;;;11.38;9.68;;;;;;;15.51;100.00;101384.78;5265337;28;20482;-68
2021/09/27 00:46:25;;;;;;;14.35;9.95;;;;;;;15.50;100.00;101390.22;5264412;28;20103;-69
2021/09/27 00:48:56;;;;;;;10.38;9.38;;;;;;;15.48;100.00;101386.88;5263996;28;20311;-69
2021/09/27 00:51:36;;;;;;;11.77;9.65;;;;;;;15.48;100.00;101387.69;5266058;28;20036;-68
2021/09/27 00:54:21;;;;;;;12.70;9.60;;;;;;;15.49;100.00;101373.53;5264332;28;20047;-68
2021/09/27 00:56:58;;;;;;;12.18;9.80;;;;;;;15.42;100.00;101375.13;5264135;28;20059;-68
2021/09/27 00:59:31;;;;;;;10.93;9.57;;;;;;;15.39;100.00;101372.75;5264569;28;20028;-68
2021/09/27 01:02:03;;;;;;;11.40;9.02;;;;;;;15.36;100.00;101369.59;5267405;28;20024;-69
2021/09/27 01:04:35;;;;;;;13.52;9.60;;;;;;;15.36;100.00;101369.59;5262383;28;20058;-68
2021/09/27 01:07:31;;;;;;;12.05;10.05;;;;;;;15.46;100.00;101371.19;5265603;28;20091;-68
2021/09/27 01:10:15;;;;;;;10.98;9.73;;;;;;;15.41;100.00;101375.25;5278995;28;20531;-68
2021/09/27 01:13:14;;;;;;;11.57;9.75;;;;;;;15.42;100.00;101371.63;5262515;28;20495;-70
2021/09/27 01:16:12;;;;;;;11.43;10.23;;;;;;;15.41;100.00;101377.88;5264748;28;20036;-68
2021/09/27 01:19:25;;;;;;;11.55;10.35;;;;;;;15.41;100.00;101385.81;5264875;28;20060;-69
2021/09/27 01:22:36;;;;;;;11.52;10.02;;;;;;;15.44;100.00;101386.34;5233258;28;20047;-68
2021/09/27 01:25:53;;;;;;;14.18;10.68;;;;;;;15.39;100.00;101385.13;5265239;28;20027;-69
2021/09/27 01:28:59;;;;;;;13.52;10.82;;;;;;;15.39;100.00;101388.59;5261934;28;20067;-68
2021/09/27 01:32:07;;;;;;;11.40;10.13;;;;;;;15.39;100.00;101374.56;5265133;28;20070;-68
2021/09/27 01:34:59;;;;;;;12.63;10.30;;;;;;;15.30;100.00;101373.63;5264294;28;20031;-69
2021/09/27 01:37:39;;;;;;;14.85;10.25;;;;;;;15.27;100.00;101364.22;5261645;28;20036;-68
2021/09/27 01:40:38;;;;;;;14.75;10.73;;;;;;;15.31;100.00;101368.22;5261862;28;20147;-70
2021/09/27 01:43:21;;;;;;;13.02;10.65;;;;;;;15.29;100.00;101367.53;5264879;28;20028;-69
2021/09/27 01:46:04;;;;;;;14.53;10.40;;;;;;;15.32;100.00;101364.59;5262859;28;20178;-68
2021/09/27 01:49:02;;;;;;;13.48;10.57;;;;;;;15.35;100.00;101360.84;5264718;28;20416;-69
2021/09/27 01:51:56;;;;;;;11.98;10.73;;;;;;;15.27;100.00;101356.31;5264388;28;20029;-70
2021/09/27 01:54:33;;;;;;;12.50;11.13;;;;;;;15.25;100.00;101349.50;5265147;28;20100;-68
2021/09/27 01:57:33;;;;;;;11.68;10.43;;;;;;;15.32;100.00;101350.56;5266193;28;20070;-68
2021/09/27 02:00:30;;;;;;;14.30;9.95;;;;;;;15.29;100.00;101343.78;5270238;28;20074;-68
2021/09/27 02:03:15;;;;;;;14.88;10.95;;;;;;;15.29;100.00;101353.50;5249978;28;20095;-68
2021/09/27 02:06:17;;;;;;;13.93;10.98;;;;;;;15.31;100.00;101362.94;5268402;28;20040;-68
2021/09/27 02:09:02;;;;;;;13.23;10.95;;;;;;;15.30;100.00;101365.72;5270247;28;20040;-69
2021/09/27 02:11:36;;;;;;;13.68;10.25;;;;;;;15.25;100.00;101368.81;5267450;28;20548;-68
2021/09/27 02:14:13;;;;;;;14.60;10.95;;;;;;;15.21;100.00;101358.69;5269625;28;20058;-69
2021/09/27 02:17:10;;;;;;;14.95;12.13;;;;;;;15.34;100.00;101353.88;5264771;28;20024;-69
2021/09/27 02:19:49;;;;;;;12.43;11.13;;;;;;;15.24;100.00;101359.22;5237582;28;20036;-68
2021/09/27 02:22:38;;;;;;;11.82;10.63;;;;;;;15.29;100.00;101359.59;5269046;28;20485;-68
2021/09/27 02:25:15;;;;;;;14.38;10.85;;;;;;;15.22;100.00;101350.63;5266191;28;20364;-68
2021/09/27 02:27:49;;;;;;;13.00;9.75;;;;;;;15.18;100.00;101357.19;5267531;28;20034;-69
2021/09/27 02:30:29;;;;;;;14.23;10.63;;;;;;;15.20;100.00;101351.78;5265639;28;20123;-69
2021/09/27 02:33:12;;;;;;;13.40;11.18;;;;;;;15.23;100.00;101346.19;5267695;28;20065;-68
2021/09/27 02:36:08;;;;;;;14.70;10.20;;;;;;;15.30;100.00;101341.97;5266989;28;20029;-69
2021/09/27 02:38:49;;;;;;;13.10;11.05;;;;;;;15.16;100.00;101340.66;5265398;28;20067;-68
2021/09/27 02:41:39;;;;;;;13.02;11.00;;;;;;;15.21;100.00;101334.94;5267852;28;20035;-69
2021/09/27 02:44:12;;;;;;;13.10;10.27;;;;;;;15.14;100.00;101342.63;5267647;28;20063;-68
2021/09/27 02:46:53;;;;;;;16.65;10.80;;;;;;;15.14;100.00;101336.50;5267631;28;20017;-69
2021/09/27 02:49:29;;;;;;;14.48;10.88;;;;;;;15.17;100.00;101339.69;5265991;28;20036;-69
2021/09/27 02:52:03;;;;;;;12.98;10.63;;;;;;;15.13;100.00;101335.69;5268689;28;20082;-68
2021/09/27 02:54:41;;;;;;;13.68;11.23;;;;;;;15.15;100.00;101339.00;5266365;28;20063;-68
2021/09/27 02:58:04;;;;;;;13.90;11.30;;;;;;;15.20;100.00;101341.22;5266906;28;20036;-68
2021/09/27 03:01:01;;;;;;;13.17;10.47;;;;;;;15.28;100.00;101341.28;5202730;28;20038;-70
2021/09/27 03:04:04;;;;;;;15.40;11.80;;;;;;;15.24;100.00;101348.69;5187558;28;20300;-68
2021/09/27 03:06:52;;;;;;;14.00;11.10;;;;;;;15.19;100.00;101340.38;5263162;28;20147;-68
2021/09/27 03:09:44;;;;;;;15.23;11.10;;;;;;;15.24;100.00;101342.56;5267233;28;20060;-68
2021/09/27 03:12:38;;;;;;;13.87;11.20;;;;;;;15.33;100.00;101344.31;5265092;28;20416;-68
2021/09/27 03:15:44;;;;;;;11.45;10.25;;;;;;;15.33;100.00;101339.84;5266283;28;20797;-68
2021/09/27 03:18:53;;;;;;;14.80;12.20;;;;;;;15.39;100.00;101334.97;5268119;28;20055;-68
2021/09/27 03:21:42;;;;;;;13.57;11.55;;;;;;;15.40;100.00;101332.19;5264856;28;20032;-68
2021/09/27 03:24:56;;;;;;;14.02;11.40;;;;;;;15.42;100.00;101338.16;5266202;28;20036;-68
2021/09/27 03:27:46;;;;;;;;;;;;;;;15.64;100.00;101333.38;5187545;28;20052;-68
2021/09/27 03:30:32;;;;;;;14.80;10.70;;;;;;;15.49;100.00;101335.72;5268695;28;19916;-69
2021/09/27 03:33:19;;;;;;;12.98;10.90;;;;;;;15.52;100.00;101330.13;5263288;28;20686;-68
2021/09/27 03:36:36;;;;;;;12.70;11.18;;;;;;;15.57;100.00;101322.63;5265765;28;20123;-69
2021/09/27 03:39:42;;;;;;;13.18;10.85;;;;;;;15.60;100.00;101319.66;5268587;28;20039;-68
2021/09/27 03:42:36;;;;;;;12.88;11.15;;;;;;;15.56;100.00;101316.47;5265299;28;20668;-69
2021/09/27 03:45:15;;;;;;;14.93;11.07;;;;;;;15.58;100.00;101316.34;5264789;28;20040;-69
2021/09/27 03:48:02;;;;;;;16.45;11.20;;;;;;;15.63;100.00;101322.00;5267826;28;20036;-69
2021/09/27 03:50:44;;;;;;;13.55;11.77;;;;;;;15.61;100.00;101318.69;5266664;28;20474;-69
2021/09/27 03:53:28;;;;;;;15.05;11.55;;;;;;;15.64;100.00;101317.53;5263108;28;20047;-68
2021/09/27 03:56:10;;;;;;;13.88;11.48;;;;;;;15.67;100.00;101312.81;5267816;28;20032;-68
2021/09/27 03:58:50;;;;;;;14.48;12.27;;;;;;;15.68;100.00;101313.63;5266375;28;20040;-68
2021/09/27 04:02:02;;;;;;;13.27;11.80;;;;;;;15.77;100.00;101303.00;5260942;28;20036;-68
2021/09/27 04:04:50;;;;;;;13.75;12.15;;;;;;;15.70;100.00;101309.88;5266734;28;20120;-68
2021/09/27 04:08:06;;;;;;;16.58;11.70;;;;;;;15.75;100.00;101312.88;5265718;28;20032;-68
2021/09/27 04:10:58;;;;;;;14.15;11.52;;;;;;;15.74;100.00;101303.31;5265392;28;20032;-68
2021/09/27 04:13:41;;;;;;;15.13;13.10;;;;;;;15.66;100.00;101311.16;5265662;28;20040;-69
2021/09/27 04:16:20;;;;;;;15.95;12.90;;;;;;;15.61;100.00;101304.63;5265494;28;20561;-69
2021/09/27 04:18:55;;;;;;;15.63;12.98;;;;;;;15.62;100.00;101301.84;5263745;28;20037;-69
2021/09/27 04:21:38;;;;;;;16.35;13.98;;;;;;;15.61;100.00;101308.13;5264934;28;20033;-69
2021/09/27 04:24:21;;;;;;;15.60;12.27;;;;;;;15.56;100.00;101303.28;5267045;28;20063;-68
2021/09/27 04:27:19;;;;;;;14.48;11.70;;;;;;;15.64;100.00;101302.50;5265295;28;20043;-68
2021/09/27 04:30:26;;;;;;;15.30;12.15;;;;;;;15.64;100.00;101299.88;5266711;28;20040;-70
2021/09/27 04:33:28;;;;;;;15.75;12.38;;;;;;;15.64;100.00;101305.16;5266136;28;20021;-68
2021/09/27 04:36:16;;;;;;;15.40;13.00;;;;;;;15.60;100.00;101298.53;5264147;28;20550;-69
2021/09/27 04:38:51;;;;;;;14.98;12.18;;;;;;;15.51;100.00;101292.34;5264199;28;20088;-69
2021/09/27 04:41:50;;;;;;;13.63;12.10;;;;;;;15.57;100.00;101290.94;5265473;28;20055;-68
2021/09/27 04:44:28;;;;;;;15.18;12.02;;;;;;;15.52;100.00;101296.63;5265840;28;20478;-69
2021/09/27 04:46:59;;;;;;;15.18;12.30;;;;;;;15.47;100.00;101296.28;5263563;28;20225;-69
2021/09/27 04:49:39;;;;;;;15.70;12.63;;;;;;;15.52;100.00;101298.44;5265483;28;20104;-69
2021/09/27 04:52:16;;;;;;;16.63;12.75;;;;;;;15.51;100.00;101296.81;5264583;28;20052;-69
2021/09/27 04:55:25;;;;;;;13.98;12.40;;;;;;;15.54;100.00;101292.06;5264820;28;20032;-68
2021/09/27 04:58:30;;;;;;;13.93;11.88;;;;;;;15.59;100.00;101294.22;5262625;28;20108;-69
2021/09/27 05:01:33;;;;;;;14.50;11.80;;;;;;;15.65;100.00;101291.03;5264774;28;20063;-69
2021/09/27 05:04:19;;;;;;;16.80;12.35;;;;;;;15.60;100.00;101285.31;5232230;28;20170;-68
2021/09/27 05:07:11;;;;;;;16.80;12.88;;;;;;;15.64;100.00;101283.19;5263816;28;20078;-69
2021/09/27 05:09:49;;;;;;;12.50;11.23;;;;;;;15.62;100.00;101266.69;5265064;28;20386;-68
2021/09/27 05:12:33;;;;;;;14.82;12.27;;;;;;;15.69;100.00;101279.16;5262961;28;20074;-68
2021/09/27 05:15:26;;;;;;;14.65;12.05;;;;;;;15.68;100.00;101277.50;5263118;28;20115;-68
2021/09/27 05:18:39;;;;;;;15.70;11.88;;;;;;;15.78;100.00;101265.03;5263837;28;20017;-68
2021/09/27 05:21:32;;;;;;;13.75;11.60;;;;;;;15.71;100.00;101263.16;5262362;28;20115;-70
2021/09/27 05:24:28;;;;;;;16.92;12.18;;;;;;;15.77;100.00;101268.66;5262461;28;20494;-69
2021/09/27 05:27:21;;;;;;;16.23;12.45;;;;;;;15.77;100.00;101268.66;5265237;28;20040;-68
2021/09/27 05:30:14;;;;;;;16.85;12.50;;;;;;;15.82;100.00;101274.31;5264042;28;20106;-69
2021/09/27 05:32:52;;;;;;;13.63;12.13;;;;;;;15.73;100.00;101271.75;5263294;28;20033;-68
2021/09/27 05:35:41;;;;;;;17.38;12.35;;;;;;;15.78;100.00;101272.13;5266061;28;20025;-68
2021/09/27 05:38:21;;;;;;;16.00;12.48;;;;;;;15.74;100.00;101282.16;5262786;28;20031;-69
2021/09/27 05:41:11;;;;;;;16.92;13.30;;;;;;;15.73;100.00;101272.59;5261279;28;20414;-69
2021/09/27 05:44:21;;;;;;;15.95;12.93;;;;;;;15.78;100.00;101261.56;5263586;28;20041;-68
2021/09/27 05:47:10;;;;;;;18.77;13.45;;;;;;;15.67;100.00;101264.44;5242008;28;20486;-69
2021/09/27 05:50:01;;;;;;;16.95;13.45;;;;;;;15.75;100.00;101267.13;5263273;28;20799;-69
2021/09/27 05:53:00;;;;;;;16.48;12.95;;;;;;;15.75;100.00;101260.03;5261902;28;20040;-68
2021/09/27 05:55:44;;;;;;;15.65;14.07;;;;;;;15.75;100.00;101261.84;5263007;28;20322;-68
2021/09/27 05:58:45;;;;;;;18.38;14.07;;;;;;;15.80;100.00;101268.34;5264090;28;20937;-69
2021/09/27 06:01:22;;;;;;;15.18;13.57;;;;;;;15.71;100.00;101261.34;5244650;28;20040;-68
2021/09/27 06:04:14;;;;;;;17.27;14.95;;;;;;;15.81;100.00;101261.25;5257848;28;20087;-69
2021/09/27 06:06:53;;;;;;;17.83;14.57;;;;;;;15.79;100.00;101266.69;5261016;28;20025;-70
2021/09/27 06:10:00;;;;;;;18.15;14.45;;;;;;;15.88;100.00;101259.66;5256527;28;20505;-69
2021/09/27 06:13:03;;;;;;;16.45;14.07;;;;;;;15.92;100.00;101258.38;5262885;28;20425;-69
2021/09/27 06:15:52;;;;;;;16.70;14.85;;;;;;;15.91;100.00;101261.16;5261939;28;20642;-68
2021/09/27 06:18:29;;;;;;;17.40;15.02;;;;;;;15.91;100.00;101266.44;5262258;28;20482;-68
2021/09/27 06:21:33;;;;;;;18.73;14.77;;;;;;;16.02;100.00;101259.09;5263630;28;20029;-68
2021/09/27 06:24:29;;;;;;;16.30;14.55;;;;;;;16.03;100.00;101265.22;5263596;28;20082;-69
2021/09/27 06:27:11;;;;;;;16.50;14.77;;;;;;;16.09;100.00;101261.94;5263949;28;20485;-68
2021/09/27 06:30:00;;;;;;;17.10;15.02;;;;;;;16.18;100.00;101254.91;5264012;28;20033;-68
2021/09/27 06:32:43;;;;;;;18.55;13.90;;;;;;;16.16;100.00;101259.50;5260117;28;20163;-68
2021/09/27 06:35:18;;;;;;;15.23;13.60;;;;;;;16.24;100.00;101262.19;5251164;28;20509;-68
2021/09/27 06:37:50;;;;;;;15.95;13.95;;;;;;;16.25;100.00;101258.53;5255511;28;20603;-69
2021/09/27 06:40:22;;;;;;;17.20;13.80;;;;;;;16.29;100.00;101247.53;5259808;28;20048;-69
2021/09/27 06:42:53;;;;;;;15.63;13.15;;;;;;;16.35;100.00;101253.97;5266130;28;20020;-68
2021/09/27 06:45:24;;;;;;;17.15;13.75;;;;;;;16.40;100.00;101259.66;5265172;28;20055;-69
2021/09/27 06:47:56;;;;;;;16.48;14.63;;;;;;;16.42;100.00;101251.53;5264474;28;20024;-69
2021/09/27 06:50:28;;;;;;;15.63;14.02;;;;;;;16.44;100.00;101255.69;5254193;28;20032;-69
2021/09/27 06:53:00;;;;;;;17.10;13.57;;;;;;;16.48;100.00;101250.91;5261572;28;20494;-67
2021/09/27 06:55:31;;;;;;;14.45;12.98;;;;;;;16.53;100.00;101252.09;5261412;28;20032;-68
2021/09/27 06:58:02;;;;;;;14.52;13.02;;;;;;;16.57;100.00;101241.19;5260404;28;20039;-68
2021/09/27 07:00:34;;;;;;;17.40;14.10;;;;;;;16.63;100.00;101245.81;5262080;28;20024;-69
2021/09/27 07:03:06;;;;;;;13.63;12.00;;;;;;;16.69;100.00;101245.19;5263437;28;20052;-68
2021/09/27 07:05:37;;;;;;;15.68;12.55;;;;;;;16.73;100.00;101238.59;5260772;28;20179;-68
2021/09/27 07:08:09;;;;;;;16.10;12.10;;;;;;;16.76;100.00;101243.59;5255676;28;20040;-68
2021/09/27 07:10:40;;;;;;;14.95;12.55;;;;;;;16.78;100.00;101226.59;5264303;28;20584;-68
2021/09/27 07:13:13;;;;;;;15.88;13.10;;;;;;;16.81;100.00;101238.66;5267945;28;20028;-69
2021/09/27 07:15:45;;;;;;;15.00;12.57;;;;;;;16.82;100.00;101240.31;5266013;28;20476;-68
2021/09/27 07:18:17;;;;;;;14.45;12.55;;;;;;;16.85;100.00;101234.69;5264311;28;20067;-68
2021/09/27 07:20:48;;;;;;;14.90;12.93;;;;;;;16.87;100.00;101224.78;5258662;28;20486;-68
2021/09/27 07:23:20;;;;;;;14.27;12.20;;;;;;;16.92;100.00;101225.13;5259728;28;20100;-67
2021/09/27 07:25:51;;;;;;;14.18;12.13;;;;;;;16.96;100.00;101229.09;5262689;28;20369;-68
2021/09/27 07:28:22;;;;;;;15.38;12.10;;;;;;;17.00;100.00;101219.84;5260522;28;20067;-67
2021/09/27 07:30:53;;;;;;;13.30;11.95;;;;;;;17.04;100.00;101222.97;5264740;28;20051;-67
2021/09/27 07:33:25;;;;;;;13.13;11.48;;;;;;;17.08;100.00;101218.19;5262716;28;20031;-68
2021/09/27 07:35:56;;;;;;;19.02;11.55;;;;;;;17.13;100.00;101221.19;5257506;28;20016;-68
2021/09/27 07:38:28;;;;;;;12.73;11.25;;;;;;;17.18;100.00;101222.34;5263657;28;20486;-68
2021/09/27 07:41:00;;;;;;;15.07;11.05;;;;;;;17.24;100.00;101229.66;5265064;28;20032;-68
2021/09/27 07:43:31;;;;;;;11.90;10.70;;;;;;;17.31;100.00;101216.56;5264401;28;20029;-68
2021/09/27 07:46:03;;;;;;;12.55;10.65;;;;;;;17.38;100.00;101224.66;5266593;28;20073;-67
2021/09/27 07:48:34;;;;;;;14.73;10.88;;;;;;;17.44;100.00;101208.94;5265195;28;20056;-68
2021/09/27 07:51:06;;;;;;;13.67;10.93;;;;;;;17.52;100.00;101221.38;5258365;28;20020;-67
2021/09/27 07:53:37;;;;;;;13.57;10.17;;;;;;;17.61;100.00;101219.53;5260110;28;20020;-68
2021/09/27 07:56:09;;;;;;;10.65;9.65;;;;;;;17.64;100.00;101214.72;5262238;28;20028;-68
2021/09/27 07:58:40;;;;;;;17.27;9.55;;;;;;;17.72;100.00;101221.84;5262513;28;20063;-68
2021/09/27 08:01:13;;;;;;;10.33;9.23;;;;;;;17.80;100.00;101219.19;5256468;28;20966;-67
2021/09/27 08:03:44;;;;;;;10.50;9.40;;;;;;;17.84;100.00;101217.03;5264367;28;20032;-67
2021/09/27 08:06:15;;;;;;;10.17;8.80;;;;;;;17.88;100.00;101211.25;5259026;28;20031;-68
2021/09/27 08:08:47;;;;;;;10.15;8.65;;;;;;;17.94;100.00;101217.69;5262128;28;20028;-68
2021/09/27 08:11:18;;;;;;;11.53;8.30;;;;;;;17.94;100.00;101217.69;5261877;28;20067;-67
2021/09/27 08:13:49;;;;;;;10.65;8.75;;;;;;;18.00;100.00;101214.38;5262719;28;20498;-67
2021/09/27 08:16:21;;;;;;;9.60;7.80;;;;;;;17.98;100.00;101217.19;5259057;28;20418;-68
2021/09/27 08:18:52;;;;;;;10.80;7.87;;;;;;;18.04;100.00;101215.69;5258204;28;20033;-67
2021/09/27 08:21:23;;;;;;;10.10;7.30;;;;;;;18.07;100.00;101230.41;5263960;28;20033;-68
2021/09/27 08:23:55;;;;;;;8.05;7.28;;;;;;;18.09;100.00;101217.81;5264088;28;20029;-68
2021/09/27 08:26:26;;;;;;;8.27;7.37;;;;;;;18.09;100.00;101223.13;5259679;28;20047;-68
2021/09/27 08:28:57;;;;;;;9.10;7.55;;;;;;;18.06;100.00;101216.34;5259415;28;20036;-68
2021/09/27 08:31:28;;;;;;;12.57;7.73;;;;;;;18.08;100.00;101227.63;5261629;28;20031;-68
2021/09/27 08:34:00;;;;;;;10.70;7.43;;;;;;;18.08;100.00;101213.53;5262631;28;20075;-67
2021/09/27 08:36:32;;;;;;;10.23;6.70;;;;;;;18.17;100.00;101223.09;5258959;28;20039;-68
2021/09/27 08:39:05;;;;;;;10.63;7.45;;;;;;;18.23;100.00;101219.78;5265198;28;20422;-68
2021/09/27 08:41:45;;;;;;;;;;;;;;;18.46;100.00;101218.03;5264218;28;20033;-68
2021/09/27 08:44:42;;;;;;;7.85;6.57;;;;;;;18.38;100.00;101211.94;5262874;28;19920;-68
2021/09/27 08:47:22;;;;;;;9.32;6.80;;;;;;;18.50;100.00;101209.72;5257454;28;20017;-67
2021/09/27 08:50:01;;;;;;;8.55;6.53;;;;;;;18.53;100.00;101215.53;5259971;28;20486;-67
2021/09/27 08:52:36;;;;;;;8.13;6.38;;;;;;;18.57;100.00;101216.81;5256494;28;20455;-68
2021/09/27 08:55:11;;;;;;;7.85;6.30;;;;;;;18.51;100.00;101214.84;5260349;28;20103;-69
2021/09/27 08:58:01;;;;;;;8.75;6.65;;;;;;;18.50;100.00;101215.03;5259657;28;20162;-69
2021/09/27 09:00:38;;;;;;;11.07;7.55;;;;;;;18.51;100.00;101212.19;5262333;28;20112;-68
2021/09/27 09:03:28;;;;;;;9.32;6.50;;;;;;;18.53;100.00;101202.25;5262598;28;20655;-69
2021/09/27 09:06:27;;;;;;;8.63;6.35;;;;;;;18.60;100.00;101205.00;5262575;28;20488;-68
2021/09/27 09:09:14;;;;;;;7.57;6.15;;;;;;;18.61;100.00;101207.50;5252886;28;20037;-68
2021/09/27 09:11:52;;;;;;;10.25;6.47;;;;;;;18.52;100.00;101205.88;5261152;28;20021;-68
2021/09/27 09:14:44;;;;;;;8.35;5.65;;;;;;;18.65;100.00;101208.81;5262537;28;20417;-68
2021/09/27 09:17:31;;;;;;;7.00;6.00;;;;;;;18.63;100.00;101212.63;5262415;28;20037;-68
2021/09/27 09:20:13;;;;;;;6.90;5.97;;;;;;;18.64;100.00;101201.88;5265471;28;20166;-69
2021/09/27 09:22:46;;;;;;;7.93;6.70;;;;;;;18.69;100.00;101204.00;5262534;28;20025;-69
2021/09/27 09:25:39;;;;;;;7.38;6.00;;;;;;;18.82;100.00;101206.09;5262485;28;20111;-69
2021/09/27 09:28:11;;;;;;;6.55;5.60;;;;;;;18.80;100.00;101198.31;5262846;28;20032;-69
2021/09/27 09:30:55;;;;;;;8.00;6.70;;;;;;;18.92;100.00;101202.22;5265691;28;20471;-69
2021/09/27 09:33:39;;;;;;;8.38;6.25;;;;;;;19.00;100.00;101187.22;5260601;28;20025;-67
2021/09/27 09:36:15;;;;;;;7.15;6.18;;;;;;;19.07;100.00;101191.66;5263080;28;20028;-68
2021/09/27 09:38:47;;;;;;;9.05;6.40;;;;;;;19.20;100.00;101186.56;5262209;28;20106;-68
2021/09/27 09:41:19;;;;;;;7.57;5.30;;;;;;;19.51;100.00;101182.16;5265655;28;20033;-68
2021/09/27 09:43:51;;;;;;;10.32;5.35;;;;;;;19.62;100.00;101182.59;5254297;28;20033;-68
2021/09/27 09:46:29;;;;;;;6.57;4.67;;;;;;;19.78;100.00;101173.63;5259813;28;20029;-68
2021/09/27 09:49:09;;;;;;;6.22;4.45;;;;;;;19.79;100.00;101169.13;5258722;28;20021;-66
2021/09/27 09:51:49;;;;;;;6.78;4.63;;;;;;;19.82;100.00;101164.28;5253263;28;20064;-67
2021/09/27 09:54:23;;;;;;;6.78;4.70;;;;;;;19.85;100.00;101165.72;5255855;28;20089;-67
2021/09/27 09:56:57;;;;;;;4.85;3.83;;;;;;;19.79;100.00;101174.44;5262751;28;20021;-68
2021/09/27 09:59:33;;;;;;;7.28;4.97;;;;;;;19.75;100.00;101170.50;5256188;28;20032;-68
2021/09/27 10:02:16;;;;;;;6.38;3.80;;;;;;;19.69;100.00;101175.53;5259501;28;20025;-68
2021/09/27 10:05:03;;;;;;;5.25;4.03;;;;;;;19.68;100.00;101170.41;5261176;28;20051;-68
2021/09/27 10:07:49;;;;;;;5.22;4.05;;;;;;;19.67;100.00;101169.56;5253177;28;20025;-67
2021/09/27 10:10:52;;;;;;;5.57;3.58;;;;;;;19.72;100.00;101171.69;5256837;28;20108;-69
2021/09/27 10:13:27;;;;;;;6.47;3.63;;;;;;;19.63;100.00;101170.94;5255478;28;20699;-68
2021/09/27 10:15:58;;;;;;;7.40;4.05;;;;;;;19.66;100.00;101170.59;5255602;28;20079;-68
2021/09/27 10:18:33;;;;;;;5.30;3.47;;;;;;;19.75;100.00;101171.31;5267179;28;20040;-68
2021/09/27 10:21:11;;;;;;;7.30;3.80;;;;;;;19.71;100.00;101162.06;5256561;28;20029;-69
2021/09/27 10:23:47;;;;;;;7.28;3.75;;;;;;;19.77;100.00;101166.63;5264138;28;20048;-68
2021/09/27 10:26:38;;;;;;;5.22;3.40;;;;;;;19.87;100.00;101156.56;5257142;28;20024;-68
2021/09/27 10:29:16;;;;;;;4.55;3.35;;;;;;;19.86;100.00;101159.41;5260710;28;20029;-67
2021/09/27 10:31:59;;;;;;;5.90;3.33;;;;;;;19.98;100.00;101165.09;5268976;28;20538;-68
2021/09/27 10:34:33;;;;;;;4.97;3.33;;;;;;;19.92;100.00;101156.00;5260156;28;20024;-67
2021/09/27 10:37:12;;;;;;;5.95;3.45;;;;;;;19.95;100.00;101152.97;5263597;28;20033;-68
2021/09/27 10:39:47;;;;;;;6.38;3.35;;;;;;;19.96;100.00;101151.97;5261609;28;20063;-68
2021/09/27 10:42:25;;;;;;;5.85;3.13;;;;;;;19.95;100.00;101152.16;5262969;28;20186;-68
2021/09/27 10:44:59;;;;;;;5.95;3.15;;;;;;;19.90;100.00;101147.41;5265027;28;20497;-69
2021/09/27 10:47:33;;;;;;;5.32;2.88;;;;;;;19.92;100.00;101151.50;5264370;28;20052;-67
2021/09/27 10:50:09;;;;;;;5.85;3.45;;;;;;;19.84;100.00;101145.47;5268372;28;20083;-69
2021/09/27 10:53:00;;;;;;;5.63;2.78;;;;;;;19.92;100.00;101150.69;5267368;28;20021;-69
2021/09/27 10:55:44;;;;;;;4.47;2.83;;;;;;;19.92;100.00;101156.81;5259015;28;20086;-68
2021/09/27 10:58:36;;;;;;;5.47;2.75;;;;;;;19.94;100.00;101151.34;5265109;28;20042;-68
2021/09/27 11:01:11;;;;;;;3.53;2.92;;;;;;;19.90;100.00;101160.69;5268097;28;20024;-69
2021/09/27 11:03:52;;;;;;;3.78;3.03;;;;;;;19.88;100.00;101152.88;5269123;28;20124;-68
2021/09/27 11:06:41;;;;;;;5.18;3.40;;;;;;;19.96;100.00;101146.66;5265598;28;20557;-67
2021/09/27 11:09:25;;;;;;;5.18;3.30;;;;;;;19.97;100.00;101143.00;5266783;28;20052;-68
2021/09/27 11:12:12;;;;;;;7.65;3.20;;;;;;;19.95;100.00;101137.03;5264705;28;20025;-68
2021/09/27 11:14:55;;;;;;;4.45;2.90;;;;;;;19.99;100.00;101137.47;5254444;28;20562;-69
2021/09/27 11:17:39;;;;;;;5.88;3.00;;;;;;;19.93;100.00;101133.75;5266103;28;20497;-69
2021/09/27 11:20:17;;;;;;;4.35;3.10;;;;;;;19.88;100.00;101136.09;5266013;28;20120;-68
2021/09/27 11:22:54;;;;;;;5.10;3.20;;;;;;;19.86;100.00;101119.53;5269470;28;20029;-68
2021/09/27 11:25:25;;;;;;;5.60;2.72;;;;;;;19.81;100.00;101122.75;5262757;28;20371;-69
2021/09/27 11:28:25;;;;;;;5.93;2.43;;;;;;;19.87;100.00;101124.66;5264297;28;20074;-69
2021/09/27 11:30:59;;;;;;;3.53;2.50;;;;;;;19.79;100.00;101122.09;5262589;28;20039;-68
2021/09/27 11:33:30;;;;;;;3.53;2.80;;;;;;;19.80;100.00;101129.06;5265860;28;20086;-69
2021/09/27 11:36:21;;;;;;;3.73;2.37;;;;;;;19.93;100.00;101123.09;5265034;28;20032;-68
2021/09/27 11:39:31;;;;;;;4.40;2.90;;;;;;;19.99;100.00;101121.53;5265605;28;20615;-69
2021/09/27 11:42:25;;;;;;;4.10;2.22;;;;;;;20.03;100.00;101120.97;5275948;28;20493;-68
2021/09/27 11:44:59;;;;;;;3.25;2.30;;;;;;;20.07;100.00;101119.59;5259402;28;20082;-69
2021/09/27 11:47:42;;;;;;;3.83;2.17;;;;;;;20.24;100.00;101114.06;5264366;28;20033;-69
2021/09/27 11:50:30;;;;;;;6.57;2.80;;;;;;;20.36;100.00;101117.88;5264274;28;20051;-69
2021/09/27 11:53:11;;;;;;;4.47;2.22;;;;;;;20.48;100.00;101116.38;5265979;28;20458;-69
2021/09/27 11:55:50;;;;;;;3.25;2.05;;;;;;;20.60;100.00;101112.22;5262390;28;20037;-69
2021/09/27 11:58:47;;;;;;;3.20;2.30;;;;;;;20.65;100.00;101115.16;5266171;28;20023;-69
2021/09/27 12:02:13;;;;;;;2.80;2.05;;;;;;;20.83;100.00;101120.03;5264662;28;20501;-68
2021/09/27 12:05:15;;;;;;;5.55;2.40;;;;;;;20.85;100.00;101120.66;5170114;28;20078;-68
2021/09/27 12:08:37;;;;;;;3.70;2.47;;;;;;;20.97;100.00;101112.16;5169521;28;20035;-68
2021/09/27 12:11:11;;;;;;;3.15;2.00;;;;;;;20.88;100.00;101116.81;5260210;28;20029;-68
2021/09/27 12:13:55;;;;;;;3.67;2.10;;;;;;;20.92;100.00;101107.44;5255036;28;20049;-67
2021/09/27 12:16:31;;;;;;;4.13;2.00;;;;;;;20.88;100.00;101108.81;5259116;28;20025;-69
2021/09/27 12:19:24;;;;;;;4.18;2.30;;;;;;;21.05;100.00;101106.69;5254762;28;20036;-68